Terminal Aerodrome Forecast
Issued by NWS

Home | Current Version | Previous Version | Text Only | Print | Product List | Glossary On
Versions: 1 2 3 4 5 6 7 8 9 10 11 12 13 14 15 16 17 18 19 20 21 22 23 24 25 26 27 28 29
253
FTUS41 KBUF 282340
TAFIAG
TAF
KIAG 282340Z 2900/2924 10007KT P6SM SKC
     FM290400 17007KT P6SM VCTS OVC050CB
     FM290600 19007KT 6SM -SHRA VCTS OVC035CB
     FM290800 22009KT P6SM OVC015
     FM291500 24011G17KT P6SM SCT250=

USA.gov is the U.S. government's official web portal to all federal, state and local government web resources and services.